sensor_id;sensor_type;location;lat;lon;timestamp;temperature;humidity
9915;DHT22;4996;48.746;9.174;2023-07-13T00:00:12;21.50;99.90
9915;DHT22;4996;48.746;9.174;2023-07-13T00:02:40;21.50;99.90
9915;DHT22;4996;48.746;9.174;2023-07-13T00:05:06;21.50;99.90
9915;DHT22;4996;48.746;9.174;2023-07-13T00:07:32;21.50;99.90
9915;DHT22;4996;48.746;9.174;2023-07-13T00:09:57;21.50;99.90
9915;DHT22;4996;48.746;9.174;2023-07-13T00:12:32;21.50;99.90
9915;DHT22;4996;48.746;9.174;2023-07-13T00:15:02;21.40;99.90
9915;DHT22;4996;48.746;9.174;2023-07-13T00:17:28;21.30;99.90
9915;DHT22;4996;48.746;9.174;2023-07-13T00:19:55;21.30;99.90
9915;DHT22;4996;48.746;9.174;2023-07-13T00:22:22;21.30;99.90
9915;DHT22;4996;48.746;9.174;2023-07-13T00:24:51;21.20;99.90
9915;DHT22;4996;48.746;9.174;2023-07-13T00:27:17;21.20;99.90
9915;DHT22;4996;48.746;9.174;2023-07-13T00:29:43;21.10;99.90
9915;DHT22;4996;48.746;9.174;2023-07-13T00:32:09;21.10;99.90
9915;DHT22;4996;48.746;9.174;2023-07-13T00:34:35;21.00;99.90
9915;DHT22;4996;48.746;9.174;2023-07-13T00:37:00;21.00;99.90
9915;DHT22;4996;48.746;9.174;2023-07-13T00:39:27;21.00;99.90
9915;DHT22;4996;48.746;9.174;2023-07-13T00:41:52;21.00;99.90
9915;DHT22;4996;48.746;9.174;2023-07-13T00:44:20;21.00;99.90
9915;DHT22;4996;48.746;9.174;2023-07-13T00:46:46;21.10;99.90
9915;DHT22;4996;48.746;9.174;2023-07-13T00:49:15;20.90;99.90
9915;DHT22;4996;48.746;9.174;2023-07-13T00:51:50;20.90;99.90
9915;DHT22;4996;48.746;9.174;2023-07-13T00:54:37;21.00;99.90
9915;DHT22;4996;48.746;9.174;2023-07-13T00:57:07;21.00;99.90
9915;DHT22;4996;48.746;9.174;2023-07-13T00:59:34;20.90;99.90
9915;DHT22;4996;48.746;9.174;2023-07-13T01:02:00;20.90;99.90
9915;DHT22;4996;48.746;9.174;2023-07-13T01:04:26;20.90;99.90
9915;DHT22;4996;48.746;9.174;2023-07-13T01:06:52;20.80;99.90
9915;DHT22;4996;48.746;9.174;2023-07-13T01:09:19;20.90;99.90
9915;DHT22;4996;48.746;9.174;2023-07-13T01:11:45;21.00;99.90
9915;DHT22;4996;48.746;9.174;2023-07-13T01:14:11;21.00;99.90
9915;DHT22;4996;48.746;9.174;2023-07-13T01:16:37;21.00;99.90
9915;DHT22;4996;48.746;9.174;2023-07-13T01:19:11;21.10;99.90
9915;DHT22;4996;48.746;9.174;2023-07-13T01:21:39;21.10;99.90
9915;DHT22;4996;48.746;9.174;2023-07-13T01:24:08;21.10;99.90
9915;DHT22;4996;48.746;9.174;2023-07-13T01:26:34;21.00;99.90
9915;DHT22;4996;48.746;9.174;2023-07-13T01:29:00;20.90;99.90
9915;DHT22;4996;48.746;9.174;2023-07-13T01:31:26;20.90;99.90
9915;DHT22;4996;48.746;9.174;2023-07-13T01:33:51;21.00;99.90
9915;DHT22;4996;48.746;9.174;2023-07-13T01:36:17;21.00;99.90
9915;DHT22;4996;48.746;9.174;2023-07-13T01:38:42;21.00;99.90
9915;DHT22;4996;48.746;9.174;2023-07-13T01:41:08;21.00;99.90
9915;DHT22;4996;48.746;9.174;2023-07-13T01:43:33;20.90;99.90
9915;DHT22;4996;48.746;9.174;2023-07-13T01:45:59;20.90;99.90
9915;DHT22;4996;48.746;9.174;2023-07-13T01:48:24;20.90;99.90
9915;DHT22;4996;48.746;9.174;2023-07-13T01:50:50;20.80;99.90
9915;DHT22;4996;48.746;9.174;2023-07-13T01:53:15;20.80;99.90
9915;DHT22;4996;48.746;9.174;2023-07-13T01:55:41;20.70;99.90
9915;DHT22;4996;48.746;9.174;2023-07-13T01:58:07;20.80;99.90
9915;DHT22;4996;48.746;9.174;2023-07-13T02:00:33;20.70;99.90
9915;DHT22;4996;48.746;9.174;2023-07-13T02:02:58;20.70;99.90
9915;DHT22;4996;48.746;9.174;2023-07-13T02:05:24;20.70;99.90
9915;DHT22;4996;48.746;9.174;2023-07-13T02:07:50;20.70;99.90
9915;DHT22;4996;48.746;9.174;2023-07-13T02:10:16;20.60;99.90
9915;DHT22;4996;48.746;9.174;2023-07-13T02:12:42;20.60;99.90
9915;DHT22;4996;48.746;9.174;2023-07-13T02:15:08;20.60;99.90
9915;DHT22;4996;48.746;9.174;2023-07-13T02:17:35;20.50;99.90
9915;DHT22;4996;48.746;9.174;2023-07-13T02:20:01;20.40;99.90
9915;DHT22;4996;48.746;9.174;2023-07-13T02:22:27;20.20;99.90
9915;DHT22;4996;48.746;9.174;2023-07-13T02:24:53;20.10;99.90
9915;DHT22;4996;48.746;9.174;2023-07-13T02:27:19;20.10;99.90
9915;DHT22;4996;48.746;9.174;2023-07-13T02:29:44;20.10;99.90
9915;DHT22;4996;48.746;9.174;2023-07-13T02:32:10;20.10;99.90
9915;DHT22;4996;48.746;9.174;2023-07-13T02:34:35;20.00;99.90
9915;DHT22;4996;48.746;9.174;2023-07-13T02:37:01;19.90;99.90
9915;DHT22;4996;48.746;9.174;2023-07-13T02:39:26;19.90;99.90
9915;DHT22;4996;48.746;9.174;2023-07-13T02:41:52;19.80;99.90
9915;DHT22;4996;48.746;9.174;2023-07-13T02:44:17;19.80;99.90
9915;DHT22;4996;48.746;9.174;2023-07-13T02:46:43;19.80;99.90
9915;DHT22;4996;48.746;9.174;2023-07-13T02:49:09;19.70;99.90
9915;DHT22;4996;48.746;9.174;2023-07-13T02:51:34;19.70;99.90
9915;DHT22;4996;48.746;9.174;2023-07-13T02:54:04;19.60;99.90
9915;DHT22;4996;48.746;9.174;2023-07-13T02:56:31;19.50;99.90
9915;DHT22;4996;48.746;9.174;2023-07-13T02:58:57;19.50;99.90
9915;DHT22;4996;48.746;9.174;2023-07-13T03:01:23;19.50;99.90
9915;DHT22;4996;48.746;9.174;2023-07-13T03:03:50;19.50;99.90
9915;DHT22;4996;48.746;9.174;2023-07-13T03:06:17;19.40;99.90
9915;DHT22;4996;48.746;9.174;2023-07-13T03:08:44;19.40;99.90
9915;DHT22;4996;48.746;9.174;2023-07-13T03:11:13;19.30;99.90
9915;DHT22;4996;48.746;9.174;2023-07-13T03:13:40;19.30;99.90
9915;DHT22;4996;48.746;9.174;2023-07-13T03:16:06;19.20;99.90
9915;DHT22;4996;48.746;9.174;2023-07-13T03:18:32;19.20;99.90
9915;DHT22;4996;48.746;9.174;2023-07-13T03:20:57;19.20;99.90
9915;DHT22;4996;48.746;9.174;2023-07-13T03:23:23;19.10;99.90
9915;DHT22;4996;48.746;9.174;2023-07-13T03:25:50;19.20;99.90
9915;DHT22;4996;48.746;9.174;2023-07-13T03:28:16;19.20;99.90
9915;DHT22;4996;48.746;9.174;2023-07-13T03:30:42;19.30;99.90
9915;DHT22;4996;48.746;9.174;2023-07-13T03:33:07;19.30;99.90
9915;DHT22;4996;48.746;9.174;2023-07-13T03:35:34;19.30;99.90
9915;DHT22;4996;48.746;9.174;2023-07-13T03:38:00;19.30;99.90
9915;DHT22;4996;48.746;9.174;2023-07-13T03:40:27;19.30;99.90
9915;DHT22;4996;48.746;9.174;2023-07-13T03:42:53;19.40;99.90
9915;DHT22;4996;48.746;9.174;2023-07-13T03:45:19;19.50;99.90
9915;DHT22;4996;48.746;9.174;2023-07-13T03:47:45;19.60;99.90
9915;DHT22;4996;48.746;9.174;2023-07-13T03:50:10;19.60;99.90
9915;DHT22;4996;48.746;9.174;2023-07-13T03:52:36;19.60;99.90
9915;DHT22;4996;48.746;9.174;2023-07-13T03:55:02;19.60;99.90
9915;DHT22;4996;48.746;9.174;2023-07-13T03:57:27;19.70;99.90
9915;DHT22;4996;48.746;9.174;2023-07-13T03:59:53;19.80;99.90
9915;DHT22;4996;48.746;9.174;2023-07-13T04:02:18;19.90;99.90
9915;DHT22;4996;48.746;9.174;2023-07-13T04:04:44;20.00;99.90
9915;DHT22;4996;48.746;9.174;2023-07-13T04:07:09;20.00;99.90
9915;DHT22;4996;48.746;9.174;2023-07-13T04:09:35;20.00;99.90
9915;DHT22;4996;48.746;9.174;2023-07-13T04:12:01;20.10;99.90
9915;DHT22;4996;48.746;9.174;2023-07-13T04:14:26;20.10;99.90
9915;DHT22;4996;48.746;9.174;2023-07-13T04:16:52;20.10;99.90
9915;DHT22;4996;48.746;9.174;2023-07-13T04:19:20;20.20;99.90
9915;DHT22;4996;48.746;9.174;2023-07-13T04:21:45;20.20;99.90
9915;DHT22;4996;48.746;9.174;2023-07-13T04:24:11;20.20;99.90
9915;DHT22;4996;48.746;9.174;2023-07-13T04:26:36;20.20;99.90
9915;DHT22;4996;48.746;9.174;2023-07-13T04:29:04;20.20;99.90
9915;DHT22;4996;48.746;9.174;2023-07-13T04:31:30;20.30;99.90
9915;DHT22;4996;48.746;9.174;2023-07-13T04:33:55;20.20;99.90
9915;DHT22;4996;48.746;9.174;2023-07-13T04:36:21;20.20;99.90
9915;DHT22;4996;48.746;9.174;2023-07-13T04:38:47;20.20;99.90
9915;DHT22;4996;48.746;9.174;2023-07-13T04:41:13;20.20;99.90
9915;DHT22;4996;48.746;9.174;2023-07-13T04:43:40;20.20;99.90
9915;DHT22;4996;48.746;9.174;2023-07-13T04:46:07;20.20;99.90
9915;DHT22;4996;48.746;9.174;2023-07-13T04:48:33;20.30;99.90
9915;DHT22;4996;48.746;9.174;2023-07-13T04:51:00;20.20;99.90
9915;DHT22;4996;48.746;9.174;2023-07-13T04:53:27;20.20;99.90
9915;DHT22;4996;48.746;9.174;2023-07-13T04:55:52;20.10;99.90
9915;DHT22;4996;48.746;9.174;2023-07-13T04:58:18;20.10;99.90
9915;DHT22;4996;48.746;9.174;2023-07-13T05:00:44;20.20;99.90
9915;DHT22;4996;48.746;9.174;2023-07-13T05:03:09;20.20;99.90
9915;DHT22;4996;48.746;9.174;2023-07-13T05:05:35;20.20;99.90
9915;DHT22;4996;48.746;9.174;2023-07-13T05:08:00;20.20;99.90
9915;DHT22;4996;48.746;9.174;2023-07-13T05:10:27;20.20;99.90
9915;DHT22;4996;48.746;9.174;2023-07-13T05:12:53;20.20;99.90
9915;DHT22;4996;48.746;9.174;2023-07-13T05:15:21;20.20;99.90
9915;DHT22;4996;48.746;9.174;2023-07-13T05:17:50;20.20;99.90
9915;DHT22;4996;48.746;9.174;2023-07-13T05:20:15;20.20;99.90
9915;DHT22;4996;48.746;9.174;2023-07-13T05:22:42;20.30;99.90
9915;DHT22;4996;48.746;9.174;2023-07-13T05:25:08;20.30;99.90
9915;DHT22;4996;48.746;9.174;2023-07-13T05:27:35;20.30;99.90
9915;DHT22;4996;48.746;9.174;2023-07-13T05:30:01;20.30;99.90
9915;DHT22;4996;48.746;9.174;2023-07-13T05:32:27;20.30;99.90
9915;DHT22;4996;48.746;9.174;2023-07-13T05:34:53;20.30;99.90
9915;DHT22;4996;48.746;9.174;2023-07-13T05:37:18;20.40;99.90
9915;DHT22;4996;48.746;9.174;2023-07-13T05:39:44;20.40;99.90
9915;DHT22;4996;48.746;9.174;2023-07-13T05:42:09;20.50;99.90
9915;DHT22;4996;48.746;9.174;2023-07-13T05:44:35;20.60;99.90
9915;DHT22;4996;48.746;9.174;2023-07-13T05:47:01;20.60;99.90
9915;DHT22;4996;48.746;9.174;2023-07-13T05:49:26;20.70;99.90
9915;DHT22;4996;48.746;9.174;2023-07-13T05:51:52;20.70;99.90
9915;DHT22;4996;48.746;9.174;2023-07-13T05:54:18;20.70;99.90
9915;DHT22;4996;48.746;9.174;2023-07-13T05:56:43;20.70;99.90
9915;DHT22;4996;48.746;9.174;2023-07-13T05:59:09;20.70;99.90
9915;DHT22;4996;48.746;9.174;2023-07-13T06:01:35;20.60;99.90
9915;DHT22;4996;48.746;9.174;2023-07-13T06:04:00;20.50;99.90
9915;DHT22;4996;48.746;9.174;2023-07-13T06:06:26;20.50;99.90
9915;DHT22;4996;48.746;9.174;2023-07-13T06:08:52;20.50;99.90
9915;DHT22;4996;48.746;9.174;2023-07-13T06:11:20;20.60;99.90
9915;DHT22;4996;48.746;9.174;2023-07-13T06:13:46;20.60;99.90
9915;DHT22;4996;48.746;9.174;2023-07-13T06:16:12;20.50;99.90
9915;DHT22;4996;48.746;9.174;2023-07-13T06:18:39;20.60;99.90
9915;DHT22;4996;48.746;9.174;2023-07-13T06:21:07;20.60;99.90
9915;DHT22;4996;48.746;9.174;2023-07-13T06:23:33;20.60;99.90
9915;DHT22;4996;48.746;9.174;2023-07-13T06:25:58;20.60;99.90
9915;DHT22;4996;48.746;9.174;2023-07-13T06:28:24;20.80;99.90
9915;DHT22;4996;48.746;9.174;2023-07-13T06:30:50;20.80;99.90
9915;DHT22;4996;48.746;9.174;2023-07-13T06:33:15;20.70;99.90
9915;DHT22;4996;48.746;9.174;2023-07-13T06:35:41;20.70;99.90
9915;DHT22;4996;48.746;9.174;2023-07-13T06:38:06;20.80;99.90
9915;DHT22;4996;48.746;9.174;2023-07-13T06:40:32;20.80;99.90
9915;DHT22;4996;48.746;9.174;2023-07-13T06:42:57;20.80;99.90
9915;DHT22;4996;48.746;9.174;2023-07-13T06:45:23;20.90;99.90
9915;DHT22;4996;48.746;9.174;2023-07-13T06:47:48;20.90;99.90
9915;DHT22;4996;48.746;9.174;2023-07-13T06:50:15;21.10;99.90
9915;DHT22;4996;48.746;9.174;2023-07-13T06:52:40;21.30;99.90
9915;DHT22;4996;48.746;9.174;2023-07-13T06:55:06;21.30;99.90
9915;DHT22;4996;48.746;9.174;2023-07-13T06:57:31;21.50;99.90
9915;DHT22;4996;48.746;9.174;2023-07-13T06:59:57;21.30;99.90
9915;DHT22;4996;48.746;9.174;2023-07-13T07:02:22;21.40;99.90
9915;DHT22;4996;48.746;9.174;2023-07-13T07:04:48;21.50;99.90
9915;DHT22;4996;48.746;9.174;2023-07-13T07:07:13;21.60;99.90
9915;DHT22;4996;48.746;9.174;2023-07-13T07:09:39;21.80;99.90
9915;DHT22;4996;48.746;9.174;2023-07-13T07:12:05;21.70;99.90
9915;DHT22;4996;48.746;9.174;2023-07-13T07:14:31;21.70;99.30
9915;DHT22;4996;48.746;9.174;2023-07-13T07:16:56;21.90;99.80
9915;DHT22;4996;48.746;9.174;2023-07-13T07:19:23;22.00;99.90
9915;DHT22;4996;48.746;9.174;2023-07-13T07:21:49;21.80;98.80
9915;DHT22;4996;48.746;9.174;2023-07-13T07:24:14;21.70;99.60
9915;DHT22;4996;48.746;9.174;2023-07-13T07:26:41;22.00;99.90
9915;DHT22;4996;48.746;9.174;2023-07-13T07:29:06;22.20;99.70
9915;DHT22;4996;48.746;9.174;2023-07-13T07:31:32;22.40;99.50
9915;DHT22;4996;48.746;9.174;2023-07-13T07:33:57;22.30;98.60
9915;DHT22;4996;48.746;9.174;2023-07-13T07:36:23;22.20;98.40
9915;DHT22;4996;48.746;9.174;2023-07-13T07:38:49;22.40;97.90
9915;DHT22;4996;48.746;9.174;2023-07-13T07:41:14;22.40;98.00
9915;DHT22;4996;48.746;9.174;2023-07-13T07:43:40;22.60;98.20
9915;DHT22;4996;48.746;9.174;2023-07-13T07:46:05;22.60;96.90
9915;DHT22;4996;48.746;9.174;2023-07-13T07:48:31;22.70;97.10
9915;DHT22;4996;48.746;9.174;2023-07-13T07:50:57;22.90;97.10
9915;DHT22;4996;48.746;9.174;2023-07-13T07:53:22;22.90;97.90
9915;DHT22;4996;48.746;9.174;2023-07-13T07:55:48;23.30;97.20
9915;DHT22;4996;48.746;9.174;2023-07-13T07:58:16;23.30;95.40
9915;DHT22;4996;48.746;9.174;2023-07-13T08:00:41;23.30;95.80
9915;DHT22;4996;48.746;9.174;2023-07-13T08:03:07;23.20;94.90
9915;DHT22;4996;48.746;9.174;2023-07-13T08:05:35;23.40;95.50
9915;DHT22;4996;48.746;9.174;2023-07-13T08:08:01;23.80;94.70
9915;DHT22;4996;48.746;9.174;2023-07-13T08:10:27;23.80;93.90
9915;DHT22;4996;48.746;9.174;2023-07-13T08:12:52;24.00;93.30
9915;DHT22;4996;48.746;9.174;2023-07-13T08:15:18;24.00;93.40
9915;DHT22;4996;48.746;9.174;2023-07-13T08:17:47;24.00;93.40
9915;DHT22;4996;48.746;9.174;2023-07-13T08:20:13;24.10;92.70
9915;DHT22;4996;48.746;9.174;2023-07-13T08:22:39;24.40;91.50
9915;DHT22;4996;48.746;9.174;2023-07-13T08:25:05;24.40;91.20
9915;DHT22;4996;48.746;9.174;2023-07-13T08:27:30;24.50;90.40
9915;DHT22;4996;48.746;9.174;2023-07-13T08:29:56;24.80;89.40
9915;DHT22;4996;48.746;9.174;2023-07-13T08:32:22;25.00;90.20
9915;DHT22;4996;48.746;9.174;2023-07-13T08:34:48;25.00;89.00
9915;DHT22;4996;48.746;9.174;2023-07-13T08:37:14;25.20;90.10
9915;DHT22;4996;48.746;9.174;2023-07-13T08:39:40;25.30;88.70
9915;DHT22;4996;48.746;9.174;2023-07-13T08:42:22;25.20;87.80
9915;DHT22;4996;48.746;9.174;2023-07-13T08:45:03;25.20;86.80
9915;DHT22;4996;48.746;9.174;2023-07-13T08:47:33;25.00;86.90
9915;DHT22;4996;48.746;9.174;2023-07-13T08:50:01;25.10;85.90
9915;DHT22;4996;48.746;9.174;2023-07-13T08:52:34;25.00;88.60
9915;DHT22;4996;48.746;9.174;2023-07-13T08:55:09;25.00;87.60
9915;DHT22;4996;48.746;9.174;2023-07-13T08:57:38;25.00;87.40
9915;DHT22;4996;48.746;9.174;2023-07-13T09:00:07;25.60;86.50
9915;DHT22;4996;48.746;9.174;2023-07-13T09:05:15;26.10;84.40
9915;DHT22;4996;48.746;9.174;2023-07-13T09:10:42;27.10;81.80
9915;DHT22;4996;48.746;9.174;2023-07-13T09:13:36;27.20;80.20
9915;DHT22;4996;48.746;9.174;2023-07-13T09:16:04;26.70;80.90
9915;DHT22;4996;48.746;9.174;2023-07-13T09:18:37;26.60;80.50
9915;DHT22;4996;48.746;9.174;2023-07-13T09:21:09;26.70;79.80
9915;DHT22;4996;48.746;9.174;2023-07-13T09:23:36;27.00;79.20
9915;DHT22;4996;48.746;9.174;2023-07-13T09:26:13;27.10;78.40
9915;DHT22;4996;48.746;9.174;2023-07-13T09:28:42;27.50;77.10
9915;DHT22;4996;48.746;9.174;2023-07-13T09:31:28;27.40;77.40
9915;DHT22;4996;48.746;9.174;2023-07-13T09:33:57;27.30;77.90
9915;DHT22;4996;48.746;9.174;2023-07-13T09:39:10;27.90;75.90
9915;DHT22;4996;48.746;9.174;2023-07-13T09:41:47;28.10;74.90
9915;DHT22;4996;48.746;9.174;2023-07-13T09:44:17;28.30;75.50
9915;DHT22;4996;48.746;9.174;2023-07-13T09:47:01;28.10;76.40
9915;DHT22;4996;48.746;9.174;2023-07-13T09:49:31;27.80;76.20
9915;DHT22;4996;48.746;9.174;2023-07-13T09:52:00;27.40;76.40
9915;DHT22;4996;48.746;9.174;2023-07-13T09:54:26;27.10;76.90
9915;DHT22;4996;48.746;9.174;2023-07-13T09:56:56;27.10;75.30
9915;DHT22;4996;48.746;9.174;2023-07-13T09:59:26;27.40;74.30
9915;DHT22;4996;48.746;9.174;2023-07-13T10:01:52;27.30;74.80
9915;DHT22;4996;48.746;9.174;2023-07-13T10:04:20;27.10;74.70
9915;DHT22;4996;48.746;9.174;2023-07-13T10:06:46;27.50;74.80
9915;DHT22;4996;48.746;9.174;2023-07-13T10:09:16;27.20;75.00
9915;DHT22;4996;48.746;9.174;2023-07-13T10:11:42;27.00;74.30
9915;DHT22;4996;48.746;9.174;2023-07-13T10:14:20;26.80;74.70
9915;DHT22;4996;48.746;9.174;2023-07-13T10:17:01;26.40;74.90
9915;DHT22;4996;48.746;9.174;2023-07-13T10:19:31;26.20;75.20
9915;DHT22;4996;48.746;9.174;2023-07-13T10:22:02;26.00;76.50
9915;DHT22;4996;48.746;9.174;2023-07-13T10:24:37;26.10;75.60
9915;DHT22;4996;48.746;9.174;2023-07-13T10:29:58;26.40;74.80
9915;DHT22;4996;48.746;9.174;2023-07-13T10:32:26;26.50;74.40
9915;DHT22;4996;48.746;9.174;2023-07-13T10:34:51;26.80;74.10
9915;DHT22;4996;48.746;9.174;2023-07-13T10:37:44;26.90;75.40
9915;DHT22;4996;48.746;9.174;2023-07-13T10:40:19;26.90;73.90
9915;DHT22;4996;48.746;9.174;2023-07-13T10:42:50;26.80;73.10
9915;DHT22;4996;48.746;9.174;2023-07-13T10:45:20;26.50;73.90
9915;DHT22;4996;48.746;9.174;2023-07-13T10:47:48;26.40;74.70
9915;DHT22;4996;48.746;9.174;2023-07-13T10:50:19;26.60;74.50
9915;DHT22;4996;48.746;9.174;2023-07-13T10:52:46;26.70;74.30
9915;DHT22;4996;48.746;9.174;2023-07-13T10:58:19;26.60;72.40
9915;DHT22;4996;48.746;9.174;2023-07-13T11:03:32;26.90;73.90
9915;DHT22;4996;48.746;9.174;2023-07-13T11:06:15;27.00;73.80
9915;DHT22;4996;48.746;9.174;2023-07-13T11:18:48;27.30;73.10
9915;DHT22;4996;48.746;9.174;2023-07-13T11:21:19;27.70;72.10
9915;DHT22;4996;48.746;9.174;2023-07-13T11:23:55;27.70;71.80
9915;DHT22;4996;48.746;9.174;2023-07-13T11:29:27;27.60;72.50
9915;DHT22;4996;48.746;9.174;2023-07-13T11:32:00;27.40;72.90
9915;DHT22;4996;48.746;9.174;2023-07-13T11:34:38;27.30;72.90
9915;DHT22;4996;48.746;9.174;2023-07-13T11:37:10;27.40;72.70
9915;DHT22;4996;48.746;9.174;2023-07-13T11:39:40;27.80;73.50
9915;DHT22;4996;48.746;9.174;2023-07-13T11:42:12;28.50;72.00
9915;DHT22;4996;48.746;9.174;2023-07-13T11:44:43;28.50;70.90
9915;DHT22;4996;48.746;9.174;2023-07-13T11:47:20;28.40;71.20
9915;DHT22;4996;48.746;9.174;2023-07-13T11:49:53;28.30;71.50
9915;DHT22;4996;48.746;9.174;2023-07-13T11:52:34;28.30;71.60
9915;DHT22;4996;48.746;9.174;2023-07-13T11:55:03;28.80;69.60
9915;DHT22;4996;48.746;9.174;2023-07-13T11:57:32;29.10;69.70
9915;DHT22;4996;48.746;9.174;2023-07-13T12:00:04;29.20;69.10
9915;DHT22;4996;48.746;9.174;2023-07-13T12:02:37;28.90;70.30
9915;DHT22;4996;48.746;9.174;2023-07-13T12:05:04;28.10;69.70
9915;DHT22;4996;48.746;9.174;2023-07-13T12:07:32;28.20;70.20
9915;DHT22;4996;48.746;9.174;2023-07-13T12:12:35;27.90;70.80
9915;DHT22;4996;48.746;9.174;2023-07-13T12:15:05;28.10;70.30
9915;DHT22;4996;48.746;9.174;2023-07-13T12:17:31;28.90;70.40
9915;DHT22;4996;48.746;9.174;2023-07-13T12:19:56;29.40;68.60
9915;DHT22;4996;48.746;9.174;2023-07-13T12:22:23;29.60;67.50
9915;DHT22;4996;48.746;9.174;2023-07-13T12:24:48;29.80;68.10
9915;DHT22;4996;48.746;9.174;2023-07-13T12:27:24;30.10;67.40
9915;DHT22;4996;48.746;9.174;2023-07-13T12:29:58;30.40;66.30
9915;DHT22;4996;48.746;9.174;2023-07-13T12:32:25;31.20;65.20
9915;DHT22;4996;48.746;9.174;2023-07-13T12:34:55;31.50;64.50
9915;DHT22;4996;48.746;9.174;2023-07-13T12:37:22;32.30;61.10
9915;DHT22;4996;48.746;9.174;2023-07-13T12:39:48;32.40;60.50
9915;DHT22;4996;48.746;9.174;2023-07-13T12:42:28;32.30;60.90
9915;DHT22;4996;48.746;9.174;2023-07-13T12:45:05;31.50;61.20
9915;DHT22;4996;48.746;9.174;2023-07-13T12:47:43;30.50;62.10
9915;DHT22;4996;48.746;9.174;2023-07-13T12:50:15;30.10;63.70
9915;DHT22;4996;48.746;9.174;2023-07-13T12:52:43;29.90;63.30
9915;DHT22;4996;48.746;9.174;2023-07-13T12:55:15;30.00;63.70
9915;DHT22;4996;48.746;9.174;2023-07-13T13:00:35;30.60;62.50
9915;DHT22;4996;48.746;9.174;2023-07-13T13:03:22;31.40;61.50
9915;DHT22;4996;48.746;9.174;2023-07-13T13:05:48;31.70;61.40
9915;DHT22;4996;48.746;9.174;2023-07-13T13:08:14;31.80;60.40
9915;DHT22;4996;48.746;9.174;2023-07-13T13:10:40;31.10;60.00
9915;DHT22;4996;48.746;9.174;2023-07-13T13:13:05;30.30;59.90
9915;DHT22;4996;48.746;9.174;2023-07-13T13:15:31;30.10;61.10
9915;DHT22;4996;48.746;9.174;2023-07-13T13:17:58;30.50;60.80
9915;DHT22;4996;48.746;9.174;2023-07-13T13:20:24;30.80;60.70
9915;DHT22;4996;48.746;9.174;2023-07-13T13:22:51;30.90;60.90
9915;DHT22;4996;48.746;9.174;2023-07-13T13:25:18;31.00;60.70
9915;DHT22;4996;48.746;9.174;2023-07-13T13:27:45;31.20;60.10
9915;DHT22;4996;48.746;9.174;2023-07-13T13:30:15;31.00;59.80
9915;DHT22;4996;48.746;9.174;2023-07-13T13:32:43;30.90;60.50
9915;DHT22;4996;48.746;9.174;2023-07-13T13:35:19;31.60;59.10
9915;DHT22;4996;48.746;9.174;2023-07-13T13:37:46;31.70;59.00
9915;DHT22;4996;48.746;9.174;2023-07-13T13:40:22;31.60;59.10
9915;DHT22;4996;48.746;9.174;2023-07-13T13:42:48;31.20;59.30
9915;DHT22;4996;48.746;9.174;2023-07-13T13:45:14;31.30;58.80
9915;DHT22;4996;48.746;9.174;2023-07-13T13:47:42;31.00;59.40
9915;DHT22;4996;48.746;9.174;2023-07-13T13:50:20;30.60;59.30
9915;DHT22;4996;48.746;9.174;2023-07-13T13:52:45;30.90;58.70
9915;DHT22;4996;48.746;9.174;2023-07-13T13:55:21;30.50;59.30
9915;DHT22;4996;48.746;9.174;2023-07-13T13:57:49;29.80;59.30
9915;DHT22;4996;48.746;9.174;2023-07-13T14:00:16;29.20;60.10
9915;DHT22;4996;48.746;9.174;2023-07-13T14:02:44;28.90;60.90
9915;DHT22;4996;48.746;9.174;2023-07-13T14:05:14;28.60;60.40
9915;DHT22;4996;48.746;9.174;2023-07-13T14:07:41;28.60;60.50
9915;DHT22;4996;48.746;9.174;2023-07-13T14:10:14;28.60;60.70
9915;DHT22;4996;48.746;9.174;2023-07-13T14:12:41;28.40;60.50
9915;DHT22;4996;48.746;9.174;2023-07-13T14:15:21;28.30;61.30
9915;DHT22;4996;48.746;9.174;2023-07-13T14:17:47;28.30;62.10
9915;DHT22;4996;48.746;9.174;2023-07-13T14:20:18;28.30;61.30
9915;DHT22;4996;48.746;9.174;2023-07-13T14:22:45;28.10;61.40
9915;DHT22;4996;48.746;9.174;2023-07-13T14:25:12;28.10;60.90
9915;DHT22;4996;48.746;9.174;2023-07-13T14:27:38;28.20;61.70
9915;DHT22;4996;48.746;9.174;2023-07-13T14:30:25;28.10;62.40
9915;DHT22;4996;48.746;9.174;2023-07-13T14:32:51;28.10;63.00
9915;DHT22;4996;48.746;9.174;2023-07-13T14:35:21;28.40;63.30
9915;DHT22;4996;48.746;9.174;2023-07-13T14:37:49;28.20;62.80
9915;DHT22;4996;48.746;9.174;2023-07-13T14:40:17;28.00;62.30
9915;DHT22;4996;48.746;9.174;2023-07-13T14:42:43;27.80;62.30
9915;DHT22;4996;48.746;9.174;2023-07-13T14:45:16;27.70;63.40
9915;DHT22;4996;48.746;9.174;2023-07-13T14:47:42;27.90;63.20
9915;DHT22;4996;48.746;9.174;2023-07-13T14:50:25;27.70;63.50
9915;DHT22;4996;48.746;9.174;2023-07-13T14:52:52;27.30;64.00
9915;DHT22;4996;48.746;9.174;2023-07-13T14:55:18;27.10;64.20
9915;DHT22;4996;48.746;9.174;2023-07-13T14:57:45;27.10;64.60
9915;DHT22;4996;48.746;9.174;2023-07-13T15:00:19;27.10;64.00
9915;DHT22;4996;48.746;9.174;2023-07-13T15:02:50;27.00;63.50
9915;DHT22;4996;48.746;9.174;2023-07-13T15:05:19;26.90;64.30
9915;DHT22;4996;48.746;9.174;2023-07-13T15:07:46;26.90;64.20
9915;DHT22;4996;48.746;9.174;2023-07-13T15:10:19;26.80;64.80
9915;DHT22;4996;48.746;9.174;2023-07-13T15:12:45;26.80;64.40
9915;DHT22;4996;48.746;9.174;2023-07-13T15:15:11;26.60;64.30
9915;DHT22;4996;48.746;9.174;2023-07-13T15:17:42;26.40;65.10
9915;DHT22;4996;48.746;9.174;2023-07-13T15:22:44;26.60;65.80
9915;DHT22;4996;48.746;9.174;2023-07-13T15:25:24;26.60;65.80
9915;DHT22;4996;48.746;9.174;2023-07-13T15:27:51;26.80;65.60
9915;DHT22;4996;48.746;9.174;2023-07-13T15:30:16;26.80;65.20
9915;DHT22;4996;48.746;9.174;2023-07-13T15:32:43;26.80;65.60
9915;DHT22;4996;48.746;9.174;2023-07-13T15:35:29;26.50;66.00
9915;DHT22;4996;48.746;9.174;2023-07-13T15:37:54;26.40;65.70
9915;DHT22;4996;48.746;9.174;2023-07-13T15:40:20;26.30;65.90
9915;DHT22;4996;48.746;9.174;2023-07-13T15:42:49;26.50;67.20
9915;DHT22;4996;48.746;9.174;2023-07-13T15:45:17;26.20;67.10
9915;DHT22;4996;48.746;9.174;2023-07-13T15:47:44;26.10;66.70
9915;DHT22;4996;48.746;9.174;2023-07-13T15:50:23;26.20;66.80
9915;DHT22;4996;48.746;9.174;2023-07-13T15:52:54;26.40;66.80
9915;DHT22;4996;48.746;9.174;2023-07-13T15:55:20;26.40;66.20
9915;DHT22;4996;48.746;9.174;2023-07-13T15:57:48;26.60;65.80
9915;DHT22;4996;48.746;9.174;2023-07-13T16:00:20;26.50;66.20
9915;DHT22;4996;48.746;9.174;2023-07-13T16:02:48;26.40;66.00
9915;DHT22;4996;48.746;9.174;2023-07-13T16:05:14;26.50;66.10
9915;DHT22;4996;48.746;9.174;2023-07-13T16:07:42;26.40;66.10
9915;DHT22;4996;48.746;9.174;2023-07-13T16:10:13;26.20;65.40
9915;DHT22;4996;48.746;9.174;2023-07-13T16:12:40;26.10;65.00
9915;DHT22;4996;48.746;9.174;2023-07-13T16:15:15;26.20;66.50
9915;DHT22;4996;48.746;9.174;2023-07-13T16:17:42;26.20;65.30
9915;DHT22;4996;48.746;9.174;2023-07-13T16:20:08;26.20;65.80
9915;DHT22;4996;48.746;9.174;2023-07-13T16:22:37;26.10;66.10
9915;DHT22;4996;48.746;9.174;2023-07-13T16:25:16;26.10;66.30
9915;DHT22;4996;48.746;9.174;2023-07-13T16:27:44;25.90;65.90
9915;DHT22;4996;48.746;9.174;2023-07-13T16:30:22;25.90;66.10
9915;DHT22;4996;48.746;9.174;2023-07-13T16:32:49;26.00;65.70
9915;DHT22;4996;48.746;9.174;2023-07-13T16:35:17;26.10;66.30
9915;DHT22;4996;48.746;9.174;2023-07-13T16:37:43;26.20;66.50
9915;DHT22;4996;48.746;9.174;2023-07-13T16:40:23;26.00;66.00
9915;DHT22;4996;48.746;9.174;2023-07-13T16:42:54;26.00;65.80
9915;DHT22;4996;48.746;9.174;2023-07-13T16:45:21;26.00;65.90